createdAt,value
2019-03-11T00:02:00.048Z,8.23
2019-03-11T00:04:30.531Z,7.93
2019-03-11T00:07:03.543Z,7.70
2019-03-11T00:09:33.920Z,7.27
2019-03-11T00:12:04.544Z,6.83
2019-03-11T00:14:35.386Z,6.13
2019-03-11T00:17:06.119Z,7.50
2019-03-11T00:19:36.723Z,7.70
2019-03-11T00:22:07.515Z,8.90
2019-03-11T00:24:37.963Z,7.23
2019-03-11T00:27:10.972Z,7.60
2019-03-11T00:29:41.325Z,6.90
2019-03-11T00:32:11.875Z,5.73
2019-03-11T00:34:42.287Z,6.43
2019-03-11T00:37:12.835Z,6.17
2019-03-11T00:39:43.659Z,5.30
2019-03-11T00:42:14.119Z,4.57
2019-03-11T00:44:44.638Z,4.07
2019-03-11T00:47:15.309Z,4.20
2019-03-11T00:49:45.880Z,4.23
2019-03-11T00:52:16.348Z,3.90
2019-03-11T00:54:47.026Z,4.07
2019-03-11T00:57:19.274Z,3.60
2019-03-11T00:59:49.985Z,3.50
2019-03-11T01:02:20.405Z,3.23
2019-03-11T01:04:50.766Z,2.80
2019-03-11T01:07:21.349Z,3.03
2019-03-11T01:09:51.798Z,3.30
2019-03-11T01:12:22.188Z,12.90
2019-03-11T01:14:52.725Z,13.93
2019-03-11T01:17:23.108Z,13.70
2019-03-11T01:19:53.435Z,13.70
2019-03-11T01:22:23.917Z,12.53
2019-03-11T01:24:54.349Z,13.10
2019-03-11T01:27:24.720Z,12.30
2019-03-11T01:29:55.129Z,12.40
2019-03-11T01:32:25.605Z,12.20
2019-03-11T01:34:56.059Z,11.60
2019-03-11T01:37:26.546Z,10.97
2019-03-11T01:39:56.973Z,10.63
2019-03-11T01:42:27.428Z,10.80
2019-03-11T01:45:00.446Z,10.80
2019-03-11T01:47:30.797Z,10.30
2019-03-11T01:50:01.226Z,10.00
2019-03-11T01:52:31.772Z,6.23
2019-03-11T01:55:02.219Z,5.20
2019-03-11T01:57:32.438Z,3.67
2019-03-11T02:00:02.764Z,4.13
2019-03-11T02:02:33.265Z,3.40
2019-03-11T02:05:06.255Z,3.90
2019-03-11T02:07:36.857Z,3.90
2019-03-11T02:10:07.972Z,10.03
2019-03-11T02:12:38.545Z,14.67
2019-03-11T02:15:10.347Z,14.67
2019-03-11T02:17:40.891Z,11.80
2019-03-11T02:20:13.250Z,10.67
2019-03-11T02:22:43.775Z,12.20
2019-03-11T02:25:14.899Z,12.30
2019-03-11T02:27:45.400Z,12.60
2019-03-11T02:30:16.319Z,11.90
2019-03-11T02:32:46.853Z,11.83
2019-03-11T02:35:27.303Z,11.27
2019-03-11T02:37:58.189Z,10.40
2019-03-11T02:40:28.795Z,10.00
2019-03-11T02:42:59.275Z,8.93
2019-03-11T02:45:29.646Z,8.00
2019-03-11T02:48:00.290Z,6.60
2019-03-11T02:50:33.810Z,6.43
2019-03-11T02:53:05.236Z,5.87
2019-03-11T02:55:35.681Z,5.30
2019-03-11T02:58:06.229Z,5.00
2019-03-11T03:00:36.721Z,4.50
2019-03-11T03:03:26.210Z,4.10
2019-03-11T03:06:00.736Z,4.60
2019-03-11T03:08:31.355Z,4.60
2019-03-11T03:11:01.883Z,4.73
2019-03-11T03:13:32.304Z,4.73
2019-03-11T03:16:02.752Z,4.30
2019-03-11T03:18:35.617Z,4.53
2019-03-11T03:21:06.077Z,4.60
2019-03-11T03:23:36.549Z,4.43
2019-03-11T03:26:06.984Z,4.47
2019-03-11T03:28:37.443Z,4.67
2019-03-11T03:31:07.925Z,4.90
2019-03-11T03:33:38.337Z,4.70
2019-03-11T03:36:08.887Z,4.47
2019-03-11T03:38:39.247Z,4.03
2019-03-11T03:41:09.778Z,4.80
2019-03-11T03:43:40.222Z,4.40
2019-03-11T03:46:18.835Z,4.33
2019-03-11T03:48:43.150Z,4.23
2019-03-11T03:51:13.649Z,4.67
2019-03-11T03:53:44.190Z,4.50
2019-03-11T03:56:14.612Z,4.63
2019-03-11T03:58:45.106Z,4.60
2019-03-11T04:01:15.600Z,3.97
2019-03-11T04:03:46.056Z,4.17
2019-03-11T04:06:16.603Z,4.37
2019-03-11T04:08:47.105Z,4.40
2019-03-11T04:11:17.685Z,4.17
2019-03-11T04:13:48.135Z,4.57
2019-03-11T04:16:18.650Z,5.00
2019-03-11T04:18:59.278Z,4.40
2019-03-11T04:21:29.888Z,4.50
2019-03-11T04:24:00.355Z,4.33
2019-03-11T04:26:32.091Z,4.97
2019-03-11T04:29:02.663Z,4.73
2019-03-11T04:31:33.230Z,4.47
2019-03-11T04:34:03.568Z,4.23
2019-03-11T04:36:34.025Z,4.37
2019-03-11T04:39:05.730Z,4.37
2019-03-11T04:41:36.223Z,4.37
2019-03-11T04:44:07.078Z,4.23
2019-03-11T04:46:37.713Z,4.17
2019-03-11T04:49:07.995Z,3.93
2019-03-11T04:51:38.359Z,4.30
2019-03-11T04:54:08.927Z,4.47
2019-03-11T04:56:39.426Z,4.47
2019-03-11T04:59:17.245Z,3.90
2019-03-11T05:01:47.822Z,4.40
2019-03-11T05:04:18.396Z,4.07
2019-03-11T05:06:48.778Z,3.90
2019-03-11T05:09:19.183Z,4.40
2019-03-11T05:11:49.589Z,6.40
2019-03-11T05:14:20.117Z,4.93
2019-03-11T05:16:50.608Z,4.30
2019-03-11T05:19:21.417Z,7.00
2019-03-11T05:21:52.226Z,6.00
2019-03-11T05:24:22.829Z,4.73
2019-03-11T05:26:53.358Z,4.33
2019-03-11T05:29:23.921Z,4.00
2019-03-11T05:31:54.402Z,4.60
2019-03-11T05:34:24.773Z,4.73
2019-03-11T05:36:55.453Z,4.70
2019-03-11T05:39:26.008Z,4.37
2019-03-11T05:41:56.719Z,4.50
2019-03-11T05:44:27.132Z,4.23
2019-03-11T05:46:57.745Z,4.13
2019-03-11T05:49:28.512Z,4.27
2019-03-11T05:51:59.213Z,3.80
2019-03-11T05:54:29.603Z,4.10
2019-03-11T05:57:00.202Z,4.43
2019-03-11T05:59:30.700Z,4.50
2019-03-11T06:02:01.150Z,5.17
2019-03-11T06:04:31.966Z,4.10
2019-03-11T06:07:02.473Z,4.60
2019-03-11T06:09:33.001Z,4.30
2019-03-11T06:12:03.306Z,4.20
2019-03-11T06:14:34.064Z,4.10
2019-03-11T06:17:04.514Z,7.87
2019-03-11T06:19:34.942Z,4.57
2019-03-11T06:22:18.059Z,3.87
2019-03-11T06:24:48.651Z,4.07
2019-03-11T06:27:19.071Z,4.37
2019-03-11T06:29:49.345Z,4.27
2019-03-11T06:32:19.767Z,4.40
2019-03-11T06:34:50.298Z,4.10
2019-03-11T06:37:22.489Z,4.30
2019-03-11T06:39:53.218Z,4.23
2019-03-11T06:42:24.037Z,3.83
2019-03-11T06:44:54.508Z,3.63
2019-03-11T06:47:24.957Z,3.83
2019-03-11T06:49:55.517Z,3.20
2019-03-11T06:52:26.126Z,3.70
2019-03-11T06:54:56.751Z,3.37
2019-03-11T06:57:27.263Z,4.10
2019-03-11T07:00:01.396Z,4.47
2019-03-11T07:02:32.027Z,4.30
2019-03-11T07:05:02.933Z,4.10
2019-03-11T07:07:33.374Z,4.17
2019-03-11T07:10:04.314Z,3.70
2019-03-11T07:12:34.805Z,3.93
2019-03-11T07:15:07.818Z,4.10
2019-03-11T07:17:38.147Z,3.60
2019-03-11T07:20:11.493Z,3.83
2019-03-11T07:22:41.999Z,4.13
2019-03-11T07:25:12.380Z,4.47
2019-03-11T07:27:42.715Z,5.63
2019-03-11T07:30:14.015Z,4.20
2019-03-11T07:32:44.454Z,4.30
2019-03-11T07:35:14.816Z,8.70
2019-03-11T07:37:45.474Z,3.57
2019-03-11T07:40:16.116Z,3.93
2019-03-11T07:42:46.751Z,6.90
2019-03-11T07:45:17.389Z,3.10
2019-03-11T07:47:47.723Z,3.10
2019-03-11T07:50:18.824Z,3.60
2019-03-11T07:52:49.385Z,4.70
2019-03-11T07:55:19.726Z,4.97
2019-03-11T07:57:50.159Z,3.27
2019-03-11T08:00:20.496Z,4.30
2019-03-11T08:02:56.636Z,4.00
2019-03-11T08:05:26.777Z,2.90
2019-03-11T08:07:56.869Z,3.97
2019-03-11T08:10:27.117Z,3.73
2019-03-11T08:12:57.524Z,3.37
2019-03-11T08:15:27.428Z,3.73
2019-03-11T08:17:57.301Z,4.10
2019-03-11T08:20:27.493Z,3.67
2019-03-11T08:22:57.609Z,2.97
2019-03-11T08:25:28.024Z,3.70
2019-03-11T08:27:58.234Z,3.57
2019-03-11T08:30:28.149Z,3.40
2019-03-11T08:32:58.524Z,3.20
2019-03-11T08:35:28.776Z,2.60
2019-03-11T08:38:04.579Z,2.80
2019-03-11T08:40:31.453Z,2.83
2019-03-11T08:43:01.759Z,3.13
2019-03-11T08:45:32.118Z,3.00
2019-03-11T08:48:02.215Z,3.03
2019-03-11T08:50:32.227Z,3.07
2019-03-11T08:53:02.810Z,2.70
2019-03-11T08:55:33.042Z,2.70
2019-03-11T08:58:03.536Z,3.00
2019-03-11T09:00:33.844Z,2.57
2019-03-11T09:03:04.072Z,3.37
2019-03-11T09:05:34.423Z,3.03
2019-03-11T09:08:04.916Z,3.17
2019-03-11T09:10:35.071Z,3.37
2019-03-11T09:13:05.576Z,2.57
2019-03-11T09:15:36.260Z,2.50
2019-03-11T09:18:06.812Z,3.40
2019-03-11T09:20:37.170Z,17.13
2019-03-11T09:23:07.308Z,6.53
2019-03-11T09:25:37.916Z,2.73
2019-03-11T09:28:08.406Z,2.80
2019-03-11T09:30:38.821Z,2.77
2019-03-11T09:33:09.391Z,2.63
2019-03-11T09:35:39.809Z,4.40
2019-03-11T09:38:10.087Z,3.93
2019-03-11T09:40:40.058Z,3.80
2019-03-11T09:43:10.211Z,3.90
2019-03-11T09:45:41.072Z,3.10
2019-03-11T09:48:11.519Z,3.13
2019-03-11T09:50:42.370Z,2.87
2019-03-11T09:53:12.678Z,2.65
2019-03-11T09:55:43.189Z,2.80
2019-03-11T09:58:13.620Z,2.87
2019-03-11T10:00:46.332Z,3.10
2019-03-11T10:03:16.797Z,2.87
2019-03-11T10:05:47.205Z,2.53
2019-03-11T10:08:17.393Z,2.73
2019-03-11T10:10:48.137Z,4.40
2019-03-11T10:13:18.684Z,4.10
2019-03-11T10:15:49.225Z,2.57
2019-03-11T10:18:19.439Z,2.50
2019-03-11T10:20:50.041Z,2.40
2019-03-11T10:23:28.407Z,9.37
2019-03-11T10:25:52.559Z,2.20
2019-03-11T10:28:22.907Z,2.80
2019-03-11T10:30:53.351Z,3.10
2019-03-11T10:33:23.963Z,33.07
2019-03-11T10:35:54.370Z,6.87
2019-03-11T10:38:24.904Z,10.10
2019-03-11T10:40:55.123Z,5.30
2019-03-11T10:43:25.395Z,4.43
2019-03-11T10:45:55.421Z,5.53
2019-03-11T10:48:36.293Z,3.98
2019-03-11T10:50:57.469Z,3.37
2019-03-11T10:53:27.425Z,3.20
2019-03-11T10:55:59.914Z,6.47
2019-03-11T10:58:30.046Z,10.60
2019-03-11T11:01:00.332Z,9.45
2019-03-11T11:03:30.992Z,6.42
2019-03-11T11:06:01.098Z,6.72
2019-03-11T11:08:31.759Z,10.58
2019-03-11T11:11:01.998Z,36.13
2019-03-11T11:13:32.349Z,44.27
2019-03-11T11:16:02.773Z,29.90
2019-03-11T11:18:33.001Z,11.90
2019-03-11T11:21:03.384Z,7.78
2019-03-11T11:23:33.510Z,8.58
2019-03-11T11:26:03.358Z,4.33
2019-03-11T11:28:33.632Z,6.17
2019-03-11T11:31:03.734Z,3.10
2019-03-11T11:33:34.106Z,3.33
2019-03-11T11:36:03.695Z,3.90
2019-03-11T11:38:33.449Z,3.00
2019-03-11T11:41:03.699Z,3.20
2019-03-11T11:43:34.129Z,4.80
2019-03-11T11:46:04.360Z,3.33
2019-03-11T11:48:34.473Z,2.95
2019-03-11T11:51:04.648Z,3.05
2019-03-11T11:53:35.043Z,2.70
2019-03-11T11:56:05.272Z,3.35
2019-03-11T11:58:35.486Z,3.77
2019-03-11T12:01:05.852Z,3.95
2019-03-11T12:03:38.861Z,3.40
2019-03-11T12:06:09.018Z,3.05
2019-03-11T12:08:39.487Z,3.22
2019-03-11T12:11:09.794Z,2.50
2019-03-11T12:13:40.506Z,2.90
2019-03-11T12:16:10.946Z,2.43
2019-03-11T12:18:41.316Z,2.50
2019-03-11T12:21:11.755Z,2.67
2019-03-11T12:23:46.205Z,3.00
2019-03-11T12:26:13.836Z,3.00
2019-03-11T12:28:47.301Z,3.20
2019-03-11T12:31:17.849Z,3.87
2019-03-11T12:33:48.384Z,3.50
2019-03-11T12:36:18.867Z,3.20
2019-03-11T12:38:49.319Z,3.10
2019-03-11T12:41:19.927Z,3.00
2019-03-11T12:43:50.673Z,3.30
2019-03-11T12:46:20.820Z,3.37
2019-03-11T12:48:51.596Z,2.93
2019-03-11T12:51:22.340Z,2.83
2019-03-11T12:53:52.453Z,3.07
2019-03-11T12:56:22.906Z,3.00
2019-03-11T12:58:53.366Z,2.80
2019-03-11T13:01:23.954Z,3.20
2019-03-11T13:03:54.612Z,4.17
2019-03-11T13:06:25.270Z,3.13
2019-03-11T13:08:55.684Z,3.40
2019-03-11T13:11:25.956Z,3.07
2019-03-11T13:13:56.482Z,3.43
2019-03-11T13:16:27.117Z,3.77
2019-03-11T13:18:59.753Z,5.17
2019-03-11T13:21:32.665Z,5.00
2019-03-11T13:24:03.347Z,4.50
2019-03-11T13:26:33.813Z,3.33
2019-03-11T13:29:04.383Z,3.43
2019-03-11T13:31:34.661Z,3.27
2019-03-11T13:34:04.944Z,3.00
2019-03-11T13:36:35.520Z,3.43
2019-03-11T13:39:07.748Z,3.13
2019-03-11T13:41:38.065Z,2.57
2019-03-11T13:44:08.964Z,4.00
2019-03-11T13:46:39.416Z,4.63
2019-03-11T13:49:09.620Z,4.00
2019-03-11T13:51:39.812Z,4.10
2019-03-11T13:54:10.027Z,6.70
2019-03-11T13:56:40.426Z,8.20
2019-03-11T13:59:11.307Z,8.13
2019-03-11T14:01:41.758Z,4.50
2019-03-11T14:04:12.308Z,4.10
2019-03-11T14:06:42.738Z,3.47
2019-03-11T14:09:13.621Z,4.33
2019-03-11T14:11:43.948Z,3.53
2019-03-11T14:14:14.451Z,4.53
2019-03-11T14:16:44.788Z,4.30
2019-03-11T14:19:15.373Z,4.73
2019-03-11T14:21:45.646Z,4.23
2019-03-11T14:24:16.055Z,4.33
2019-03-11T14:26:46.433Z,5.10
2019-03-11T14:29:16.951Z,3.80
2019-03-11T14:31:47.269Z,5.30
2019-03-11T14:34:18.183Z,5.83
2019-03-11T14:36:48.716Z,6.47
2019-03-11T14:39:18.950Z,5.50
2019-03-11T14:41:49.522Z,6.57
2019-03-11T14:44:19.611Z,5.70
2019-03-11T14:46:50.156Z,5.77
2019-03-11T14:49:20.388Z,6.93
2019-03-11T14:51:50.609Z,5.40
2019-03-11T14:54:20.553Z,4.93
2019-03-11T14:56:50.691Z,6.23
2019-03-11T14:59:21.103Z,5.20
2019-03-11T15:01:51.483Z,5.90
2019-03-11T15:04:22.065Z,6.43
2019-03-11T15:06:52.844Z,3.67
2019-03-11T15:09:23.432Z,8.00
2019-03-11T15:11:53.666Z,7.60
2019-03-11T15:14:24.168Z,5.80
2019-03-11T15:16:54.573Z,6.20
2019-03-11T15:19:24.980Z,6.70
2019-03-11T15:21:55.276Z,9.73
2019-03-11T15:24:25.923Z,13.87
2019-03-11T15:26:56.135Z,14.07
2019-03-11T15:29:26.310Z,11.67
2019-03-11T15:31:57.637Z,10.97
2019-03-11T15:34:28.243Z,8.77
2019-03-11T15:36:58.403Z,6.43
2019-03-11T15:39:28.733Z,5.90
2019-03-11T15:41:59.255Z,9.07
2019-03-11T15:44:29.591Z,20.23
2019-03-11T15:46:59.894Z,11.57
2019-03-11T15:49:30.033Z,10.00
2019-03-11T15:52:00.510Z,11.50
2019-03-11T15:54:30.961Z,10.37
2019-03-11T15:57:01.007Z,10.53
2019-03-11T15:59:31.474Z,10.83
2019-03-11T16:02:01.915Z,11.07
2019-03-11T16:04:32.469Z,13.03
2019-03-11T16:07:02.740Z,16.27
2019-03-11T16:09:32.873Z,22.30
2019-03-11T16:12:03.201Z,35.03
2019-03-11T16:14:33.815Z,14.23
2019-03-11T16:17:04.520Z,6.60
2019-03-11T16:19:34.980Z,8.53
2019-03-11T16:22:05.483Z,7.27
2019-03-11T16:24:35.742Z,12.03
2019-03-11T16:27:06.201Z,21.23
2019-03-11T16:29:36.890Z,25.93
2019-03-11T16:32:07.515Z,52.10
2019-03-11T16:34:37.727Z,15.73
2019-03-11T16:37:08.291Z,13.27
2019-03-11T16:39:38.193Z,4.90
2019-03-11T16:42:08.638Z,5.07
2019-03-11T16:44:38.917Z,5.27
2019-03-11T16:47:09.027Z,4.10
2019-03-11T16:49:39.358Z,5.13
2019-03-11T16:52:09.722Z,4.67
2019-03-11T16:54:39.801Z,4.90
2019-03-11T16:57:10.629Z,6.17
2019-03-11T16:59:40.835Z,4.87
2019-03-11T17:02:11.277Z,4.13
2019-03-11T17:04:41.576Z,5.50
2019-03-11T17:07:12.855Z,7.20
2019-03-11T17:09:43.279Z,8.90
2019-03-11T17:12:13.381Z,5.77
2019-03-11T17:14:43.388Z,5.73
2019-03-11T17:17:15.300Z,5.53
2019-03-11T17:19:45.773Z,6.57
2019-03-11T17:22:16.332Z,7.17
2019-03-11T17:24:46.763Z,8.00
2019-03-11T17:27:17.224Z,7.10
2019-03-11T17:29:47.154Z,7.50
2019-03-11T17:32:17.800Z,5.93
2019-03-11T17:34:48.313Z,6.87
2019-03-11T17:37:18.734Z,5.80
2019-03-11T17:39:49.241Z,7.17
2019-03-11T17:42:19.481Z,4.73
2019-03-11T17:44:49.999Z,6.10
2019-03-11T17:47:23.029Z,4.33
2019-03-11T17:49:54.369Z,3.47
2019-03-11T17:52:25.000Z,3.00
2019-03-11T17:54:55.332Z,2.70
2019-03-11T17:57:25.746Z,2.90
2019-03-11T17:59:56.280Z,4.37
2019-03-11T18:02:26.632Z,4.60
2019-03-11T18:04:56.905Z,3.47
2019-03-11T18:07:27.067Z,3.07
2019-03-11T18:09:58.113Z,2.57
2019-03-11T18:12:28.060Z,3.17
2019-03-11T18:14:57.980Z,2.80
2019-03-11T18:17:28.429Z,2.87
2019-03-11T18:19:58.425Z,3.40
2019-03-11T18:22:28.871Z,3.03
2019-03-11T18:24:59.297Z,3.43
2019-03-11T18:27:29.751Z,5.07
2019-03-11T18:30:00.036Z,6.00
2019-03-11T18:32:30.390Z,5.40
2019-03-11T18:35:00.901Z,3.70
2019-03-11T18:37:31.147Z,4.13
2019-03-11T18:40:03.782Z,8.03
2019-03-11T18:42:34.175Z,7.50
2019-03-11T18:45:04.578Z,5.17
2019-03-11T18:47:35.117Z,5.23
2019-03-11T18:50:06.132Z,4.33
2019-03-11T18:52:36.208Z,4.87
2019-03-11T18:55:07.006Z,4.80
2019-03-11T18:57:40.474Z,6.23
2019-03-11T19:00:12.330Z,6.60
2019-03-11T19:02:45.119Z,6.03
2019-03-11T19:05:16.248Z,6.03
2019-03-11T19:07:46.844Z,5.83
2019-03-11T19:10:17.494Z,7.17
2019-03-11T19:12:47.438Z,6.57
2019-03-11T19:15:18.237Z,6.80
2019-03-11T19:17:48.599Z,6.90
2019-03-11T19:20:19.519Z,6.10
2019-03-11T19:22:50.228Z,5.60
2019-03-11T19:25:20.341Z,5.17
2019-03-11T19:27:50.750Z,5.60
2019-03-11T19:30:24.213Z,5.03
2019-03-11T19:32:56.075Z,4.80
2019-03-11T19:35:26.808Z,4.83
2019-03-11T19:37:57.408Z,4.50
2019-03-11T19:40:27.634Z,3.87
2019-03-11T19:42:58.362Z,4.37
2019-03-11T19:45:28.621Z,4.90
2019-03-11T19:47:59.070Z,4.47
2019-03-11T19:50:30.738Z,4.37
2019-03-11T19:53:01.182Z,4.47
2019-03-11T19:55:31.647Z,4.40
2019-03-11T19:58:02.281Z,4.60
2019-03-11T20:00:32.866Z,4.13
2019-03-11T20:03:03.347Z,5.00
2019-03-11T20:05:33.956Z,5.67
2019-03-11T20:08:04.817Z,10.70
2019-03-11T20:10:35.650Z,9.80
2019-03-11T20:13:06.313Z,9.23
2019-03-11T20:15:38.211Z,9.03
2019-03-11T20:18:08.782Z,8.80
2019-03-11T20:20:39.948Z,7.73
2019-03-11T20:23:10.292Z,7.10
2019-03-11T20:25:40.739Z,7.17
2019-03-11T20:28:11.213Z,6.67
2019-03-11T20:30:41.496Z,7.27
2019-03-11T20:33:14.203Z,7.50
2019-03-11T20:35:44.746Z,6.47
2019-03-11T20:38:15.098Z,6.47
2019-03-11T20:40:45.572Z,6.13
2019-03-11T20:43:15.463Z,6.50
2019-03-11T20:45:46.001Z,6.83
2019-03-11T20:48:18.821Z,6.80
2019-03-11T20:50:51.502Z,7.00
2019-03-11T20:53:22.140Z,6.27
2019-03-11T20:55:52.913Z,6.50
2019-03-11T20:58:23.534Z,6.70
2019-03-11T21:00:53.916Z,6.30
2019-03-11T21:03:24.514Z,6.77
2019-03-11T21:05:55.328Z,6.97
2019-03-11T21:08:25.787Z,6.30
2019-03-11T21:10:56.455Z,6.50
2019-03-11T21:13:26.699Z,6.40
2019-03-11T21:15:57.182Z,7.03
2019-03-11T21:18:27.593Z,6.73
2019-03-11T21:21:04.705Z,6.37
2019-03-11T21:23:29.245Z,6.40
2019-03-11T21:26:02.183Z,6.90
2019-03-11T21:28:32.821Z,6.50
2019-03-11T21:31:03.441Z,6.50
2019-03-11T21:33:36.517Z,7.03
2019-03-11T21:36:07.039Z,6.40
2019-03-11T21:38:37.809Z,6.80
2019-03-11T21:41:08.169Z,6.83
2019-03-11T21:43:38.892Z,6.90
2019-03-11T21:46:08.629Z,6.97
2019-03-11T21:48:39.248Z,6.10
2019-03-11T21:51:09.354Z,7.00
2019-03-11T21:53:39.813Z,7.13
2019-03-11T21:56:10.417Z,6.10
2019-03-11T21:58:40.946Z,6.63
2019-03-11T22:01:13.826Z,6.10
2019-03-11T22:03:44.164Z,6.33
2019-03-11T22:06:14.131Z,6.60
2019-03-11T22:08:44.575Z,6.50
2019-03-11T22:11:14.891Z,6.27
2019-03-11T22:13:45.360Z,6.37
2019-03-11T22:16:15.806Z,7.27
2019-03-11T22:18:45.872Z,6.30
2019-03-11T22:21:16.383Z,6.73
2019-03-11T22:23:47.058Z,7.33
2019-03-11T22:26:17.559Z,6.80
2019-03-11T22:28:48.061Z,7.37
2019-03-11T22:31:20.854Z,6.40
2019-03-11T22:33:51.211Z,6.80
2019-03-11T22:36:21.741Z,6.93
2019-03-11T22:38:52.188Z,6.87
2019-03-11T22:41:22.784Z,7.20
2019-03-11T22:43:53.390Z,6.90
2019-03-11T22:46:23.937Z,6.97
2019-03-11T22:48:54.147Z,6.63
2019-03-11T22:51:24.636Z,6.50
2019-03-11T22:53:55.013Z,6.70
2019-03-11T22:56:25.545Z,6.93
2019-03-11T22:58:55.894Z,6.47
2019-03-11T23:01:26.591Z,6.43
2019-03-11T23:03:58.659Z,6.93
2019-03-11T23:06:29.092Z,6.30
2019-03-11T23:08:59.686Z,7.00
2019-03-11T23:11:29.694Z,6.17
2019-03-11T23:14:00.103Z,5.93
2019-03-11T23:16:30.520Z,6.00
2019-03-11T23:19:01.115Z,6.10
2019-03-11T23:21:31.495Z,5.77
2019-03-11T23:24:01.954Z,5.80
2019-03-11T23:26:34.704Z,5.60
2019-03-11T23:29:05.243Z,5.93
2019-03-11T23:31:35.719Z,5.93
2019-03-11T23:34:06.005Z,5.60
2019-03-11T23:36:36.397Z,6.13
2019-03-11T23:39:08.615Z,5.47
2019-03-11T23:41:39.244Z,5.97
2019-03-11T23:44:09.660Z,5.23
2019-03-11T23:46:39.983Z,5.77
2019-03-11T23:49:10.505Z,6.20
2019-03-11T23:51:41.018Z,5.70
2019-03-11T23:54:11.674Z,5.57
2019-03-11T23:56:42.266Z,5.43
2019-03-11T23:59:13.041Z,5.50
